createdAt,value
2017-04-06T00:00:16.095Z,1012.03
2017-04-06T00:00:56.581Z,1012.08
2017-04-06T00:01:37.087Z,1012.14
2017-04-06T00:02:17.552Z,1012.07
2017-04-06T00:02:58.014Z,1012.16
2017-04-06T00:03:38.524Z,1012.14
2017-04-06T00:04:19.040Z,1012.12
2017-04-06T00:04:59.508Z,1012.13
2017-04-06T00:05:39.996Z,1012.19
2017-04-06T00:06:20.478Z,1012.17
2017-04-06T00:07:00.956Z,1012.16
2017-04-06T00:07:41.415Z,1012.19
2017-04-06T00:08:21.892Z,1012.24
2017-04-06T00:09:02.386Z,1012.18
2017-04-06T00:09:43.516Z,1012.21
2017-04-06T00:10:24.036Z,1012.21
2017-04-06T00:11:04.481Z,1012.22
2017-04-06T00:11:44.970Z,1012.26
2017-04-06T00:12:25.475Z,1012.27
2017-04-06T00:13:05.956Z,1012.28
2017-04-06T00:13:46.447Z,1012.21
2017-04-06T00:14:26.945Z,1012.26
2017-04-06T00:15:07.452Z,1012.25
2017-04-06T00:15:47.937Z,1012.28
2017-04-06T00:16:28.415Z,1012.3
2017-04-06T00:17:08.880Z,1012.24
2017-04-06T00:17:49.366Z,1012.24
2017-04-06T00:18:29.830Z,1012.21
2017-04-06T00:19:10.286Z,1012.22
2017-04-06T00:19:50.787Z,1012.2
2017-04-06T00:21:48.414Z,1012.19
2017-04-06T00:22:28.871Z,1012.19
2017-04-06T00:23:09.353Z,1012.23
2017-04-06T00:23:49.921Z,1012.18
2017-04-06T00:24:30.440Z,1012.21
2017-04-06T00:25:10.882Z,1012.22
2017-04-06T00:25:51.353Z,1012.29
2017-04-06T00:26:31.829Z,1012.24
2017-04-06T00:27:12.285Z,1012.21
2017-04-06T00:29:25.025Z,1012.27
2017-04-06T00:30:05.479Z,1012.25
2017-04-06T00:30:45.970Z,1012.25
2017-04-06T00:31:26.471Z,1012.25
2017-04-06T00:32:07.669Z,1012.26
2017-04-06T00:32:48.158Z,1012.24
2017-04-06T00:33:28.611Z,1012.23
2017-04-06T00:34:09.100Z,1012.21
2017-04-06T00:34:49.585Z,1012.26
2017-04-06T00:35:30.068Z,1012.27
2017-04-06T00:36:10.585Z,1012.26
2017-04-06T00:36:51.053Z,1012.31
2017-04-06T00:37:31.524Z,1012.29
2017-04-06T00:38:12.027Z,1012.3
2017-04-06T00:38:52.507Z,1012.31
2017-04-06T00:39:33.010Z,1012.29
2017-04-06T00:40:13.462Z,1012.27
2017-04-06T00:40:53.958Z,1012.31
2017-04-06T00:41:34.426Z,1012.25
2017-04-06T00:42:14.892Z,1012.29
2017-04-06T00:44:12.542Z,1012.28
2017-04-06T00:44:52.995Z,1012.33
2017-04-06T00:45:33.466Z,1012.34
2017-04-06T00:46:13.924Z,1012.34
2017-04-06T00:46:54.428Z,1012.29
2017-04-06T00:47:34.871Z,1012.35
2017-04-06T00:48:15.316Z,1012.31
2017-04-06T00:48:55.778Z,1012.3
2017-04-06T00:49:36.230Z,1012.33
2017-04-06T00:50:16.701Z,1012.32
2017-04-06T00:50:57.175Z,1012.4
2017-04-06T00:52:54.815Z,1012.42
2017-04-06T00:53:35.285Z,1012.4
2017-04-06T00:54:15.762Z,1012.44
2017-04-06T00:54:56.263Z,1012.39
2017-04-06T00:55:36.921Z,1012.37
2017-04-06T00:56:17.547Z,1012.36
2017-04-06T00:56:58.040Z,1012.34
2017-04-06T00:57:38.508Z,1012.35
2017-04-06T00:58:18.973Z,1012.36
2017-04-06T00:58:59.470Z,1012.37
2017-04-06T00:59:39.928Z,1012.35
2017-04-06T01:00:20.366Z,1012.35
2017-04-06T01:01:00.817Z,1012.35
2017-04-06T01:03:13.515Z,1012.31
2017-04-06T01:03:53.995Z,1012.3
2017-04-06T01:04:34.465Z,1012.27
2017-04-06T01:05:14.904Z,1012.3
2017-04-06T01:05:55.338Z,1012.27
2017-04-06T01:06:35.801Z,1012.32
2017-04-06T01:07:16.242Z,1012.33
2017-04-06T01:07:56.709Z,1012.31
2017-04-06T01:08:37.156Z,1012.31
2017-04-06T01:09:17.629Z,1012.27
2017-04-06T01:11:45.640Z,1012.34
2017-04-06T01:12:26.027Z,1012.33
2017-04-06T01:13:06.486Z,1012.4
2017-04-06T01:13:46.928Z,1012.26
2017-04-06T01:14:27.417Z,1012.36
2017-04-06T01:15:07.887Z,1012.37
2017-04-06T01:15:48.316Z,1012.34
2017-04-06T01:16:28.782Z,1012.38
2017-04-06T01:18:26.361Z,1012.39
2017-04-06T01:19:06.821Z,1012.34
2017-04-06T01:19:48.079Z,1012.36
2017-04-06T01:20:28.577Z,1012.37
2017-04-06T01:21:09.034Z,1012.4
2017-04-06T01:23:36.945Z,1012.38
2017-04-06T01:24:17.440Z,1012.37
2017-04-06T01:24:57.952Z,1012.37
2017-04-06T01:25:38.447Z,1012.41
2017-04-06T01:26:18.904Z,1012.38
2017-04-06T01:26:59.316Z,1012.41
2017-04-06T01:28:51.883Z,1012.46
2017-04-06T01:29:32.380Z,1012.42
2017-04-06T01:30:12.847Z,1012.45
2017-04-06T01:30:53.372Z,1012.48
2017-04-06T01:31:33.879Z,1012.44
2017-04-06T01:32:14.432Z,1012.49
2017-04-06T01:32:54.928Z,1012.45
2017-04-06T01:33:35.439Z,1012.43
2017-04-06T01:34:15.917Z,1012.47
2017-04-06T01:34:56.419Z,1012.41
2017-04-06T01:35:36.891Z,1012.43
2017-04-06T01:36:17.377Z,1012.44
2017-04-06T01:36:57.848Z,1012.46
2017-04-06T01:37:38.322Z,1012.5
2017-04-06T01:38:18.799Z,1012.46
2017-04-06T01:38:59.306Z,1012.47
2017-04-06T01:39:39.783Z,1012.47
2017-04-06T01:40:20.276Z,1012.57
2017-04-06T01:41:00.778Z,1012.54
2017-04-06T01:41:41.252Z,1012.56
2017-04-06T01:42:21.701Z,1012.61
2017-04-06T01:43:02.162Z,1012.64
2017-04-06T01:43:42.646Z,1012.59
2017-04-06T01:44:23.130Z,1012.59
2017-04-06T01:45:03.576Z,1012.57
2017-04-06T01:45:44.041Z,1012.62
2017-04-06T01:46:24.528Z,1012.64
2017-04-06T01:47:05.037Z,1012.54
2017-04-06T01:47:45.488Z,1012.56
2017-04-06T01:48:25.969Z,1012.54
2017-04-06T01:50:43.790Z,1012.65
2017-04-06T01:51:24.308Z,1012.68
2017-04-06T01:52:04.820Z,1012.65
2017-04-06T01:52:45.280Z,1012.66
2017-04-06T01:53:25.750Z,1012.66
2017-04-06T01:54:06.250Z,1012.65
2017-04-06T01:54:46.728Z,1012.65
2017-04-06T01:55:27.171Z,1012.64
2017-04-06T01:56:07.624Z,1012.66
2017-04-06T01:56:48.099Z,1012.68
2017-04-06T01:58:40.683Z,1012.69
2017-04-06T01:59:21.152Z,1012.7
2017-04-06T02:00:01.685Z,1012.71
2017-04-06T02:00:42.140Z,1012.72
2017-04-06T02:01:22.594Z,1012.72
2017-04-06T02:02:03.048Z,1012.7
2017-04-06T02:02:43.497Z,1012.68
2017-04-06T02:03:23.939Z,1012.67
2017-04-06T02:04:04.391Z,1012.68
2017-04-06T02:04:44.874Z,1012.68
2017-04-06T02:05:25.321Z,1012.65
2017-04-06T02:06:05.795Z,1012.67
2017-04-06T02:06:46.240Z,1012.68
2017-04-06T02:07:26.716Z,1012.69
2017-04-06T02:08:07.162Z,1012.65
2017-04-06T02:08:47.568Z,1012.7
2017-04-06T02:09:28.019Z,1012.64
2017-04-06T02:11:45.828Z,1012.58
2017-04-06T02:12:26.276Z,1012.59
2017-04-06T02:13:06.792Z,1012.6
2017-04-06T02:13:47.257Z,1012.64
2017-04-06T02:14:27.716Z,1012.6
2017-04-06T02:15:08.167Z,1012.63
2017-04-06T02:15:48.632Z,1012.68
2017-04-06T02:16:29.082Z,1012.65
2017-04-06T02:18:26.751Z,1012.67
2017-04-06T02:19:07.209Z,1012.65
2017-04-06T02:19:47.693Z,1012.6
2017-04-06T02:20:28.170Z,1012.61
2017-04-06T02:21:08.653Z,1012.64
2017-04-06T02:21:49.179Z,1012.67
2017-04-06T02:22:29.624Z,1012.65
2017-04-06T02:23:10.099Z,1012.65
2017-04-06T02:23:50.638Z,1012.66
2017-04-06T02:24:31.114Z,1012.69
2017-04-06T02:25:11.590Z,1012.68
2017-04-06T02:25:52.085Z,1012.69
2017-04-06T02:26:32.555Z,1012.69
2017-04-06T02:27:13.043Z,1012.7
2017-04-06T02:29:05.602Z,1012.75
2017-04-06T02:29:46.065Z,1012.75
2017-04-06T02:30:26.539Z,1012.77
2017-04-06T02:31:06.973Z,1012.77
2017-04-06T02:31:47.434Z,1012.82
2017-04-06T02:32:27.873Z,1012.82
2017-04-06T02:33:08.370Z,1012.82
2017-04-06T02:33:48.826Z,1012.84
2017-04-06T02:34:29.279Z,1012.85
2017-04-06T02:35:09.797Z,1012.85
2017-04-06T02:35:50.271Z,1012.85
2017-04-06T02:36:30.703Z,1012.85
2017-04-06T02:37:11.127Z,1012.85
2017-04-06T02:37:51.608Z,1012.84
2017-04-06T02:38:32.062Z,1012.86
2017-04-06T02:39:12.482Z,1012.86
2017-04-06T02:39:52.932Z,1012.85
2017-04-06T02:40:33.403Z,1012.86
2017-04-06T02:41:13.850Z,1012.85
2017-04-06T02:41:54.307Z,1012.88
2017-04-06T02:42:34.732Z,1012.87
2017-04-06T02:43:15.223Z,1012.85
2017-04-06T02:43:55.684Z,1012.81
2017-04-06T02:44:36.143Z,1012.8
2017-04-06T02:45:16.604Z,1012.78
2017-04-06T02:45:57.052Z,1012.83
2017-04-06T02:46:37.537Z,1012.81
2017-04-06T02:47:18.652Z,1012.81
2017-04-06T02:47:59.104Z,1012.84
2017-04-06T02:48:39.556Z,1012.84
2017-04-06T02:49:20.013Z,1012.86
2017-04-06T02:50:00.463Z,1012.86
2017-04-06T02:50:40.993Z,1012.88
2017-04-06T02:51:21.449Z,1012.9
2017-04-06T02:52:01.924Z,1012.87
2017-04-06T02:52:42.356Z,1012.86
2017-04-06T02:53:22.824Z,1012.91
2017-04-06T02:54:03.234Z,1012.91
2017-04-06T02:54:43.693Z,1012.92
2017-04-06T02:55:24.134Z,1012.93
2017-04-06T02:56:04.566Z,1012.95
2017-04-06T02:56:45.049Z,1012.98
2017-04-06T02:58:57.782Z,1013.01
2017-04-06T02:59:38.208Z,1012.98
2017-04-06T03:00:18.661Z,1012.95
2017-04-06T03:00:59.155Z,1012.92
2017-04-06T03:01:39.646Z,1012.97
2017-04-06T03:02:20.144Z,1013.01
2017-04-06T03:03:00.661Z,1013
2017-04-06T03:03:41.155Z,1013.01
2017-04-06T03:04:21.673Z,1013.08
2017-04-06T03:06:19.258Z,1013.09
2017-04-06T03:06:59.758Z,1013.1
2017-04-06T03:07:40.205Z,1013.09
2017-04-06T03:08:21.224Z,1013.08
2017-04-06T03:09:01.709Z,1013.09
2017-04-06T03:09:42.209Z,1013.1
2017-04-06T03:10:22.675Z,1013.14
2017-04-06T03:11:03.185Z,1013.15
2017-04-06T03:11:43.650Z,1013.12
2017-04-06T03:12:24.126Z,1013.08
2017-04-06T03:13:04.579Z,1013.08
2017-04-06T03:13:45.071Z,1013.06
2017-04-06T03:16:13.041Z,1013.04
2017-04-06T03:16:53.519Z,1013.04
2017-04-06T03:17:33.997Z,1013.05
2017-04-06T03:18:14.487Z,1013.06
2017-04-06T03:18:54.913Z,1013.1
2017-04-06T03:19:35.410Z,1013.1
2017-04-06T03:20:15.867Z,1013.08
2017-04-06T03:20:56.349Z,1013.04
2017-04-06T03:21:36.828Z,1013.06
2017-04-06T03:22:17.265Z,1013.02
2017-04-06T03:22:57.718Z,1013
2017-04-06T03:23:38.154Z,1013
2017-04-06T03:25:35.768Z,1013.03
2017-04-06T03:26:16.226Z,1013.03
2017-04-06T03:26:56.706Z,1013.06
2017-04-06T03:27:37.165Z,1013.06
2017-04-06T03:28:17.628Z,1013.09
2017-04-06T03:28:58.099Z,1013.09
2017-04-06T03:29:38.552Z,1013.1
2017-04-06T03:30:19.007Z,1013.1
2017-04-06T03:30:59.415Z,1013.07
2017-04-06T03:31:40.021Z,1013.06
2017-04-06T03:32:20.454Z,1013.04
2017-04-06T03:33:00.890Z,1013.05
2017-04-06T03:33:41.330Z,1013.05
2017-04-06T03:34:21.809Z,1013.06
2017-04-06T03:35:02.279Z,1013.05
2017-04-06T03:37:15.012Z,1013.08
2017-04-06T03:37:55.463Z,1013.07
2017-04-06T03:38:35.964Z,1013.06
2017-04-06T03:39:16.442Z,1013.07
2017-04-06T03:39:56.931Z,1013.08
2017-04-06T03:40:37.400Z,1013.09
2017-04-06T03:41:17.880Z,1013.11
2017-04-06T03:41:58.340Z,1013.1
2017-04-06T03:42:38.823Z,1013.13
2017-04-06T03:43:19.295Z,1013.13
2017-04-06T03:43:59.781Z,1013.16
2017-04-06T03:44:40.253Z,1013.1
2017-04-06T03:45:20.731Z,1013.1
2017-04-06T03:46:01.275Z,1013.08
2017-04-06T03:46:41.747Z,1013.05
2017-04-06T03:47:22.175Z,1013.07
2017-04-06T03:48:02.634Z,1013.05
2017-04-06T03:48:43.120Z,1013.04
2017-04-06T03:49:23.560Z,1013.05
2017-04-06T03:50:04.007Z,1013.09
2017-04-06T03:50:44.508Z,1013.07
2017-04-06T03:51:24.943Z,1013.11
2017-04-06T03:53:17.545Z,1013.12
2017-04-06T03:53:58.010Z,1013.14
2017-04-06T03:54:38.467Z,1013.1
2017-04-06T03:56:56.233Z,1013.11
2017-04-06T03:57:36.744Z,1013.08
2017-04-06T03:58:17.245Z,1013.07
2017-04-06T03:58:57.720Z,1013.1
2017-04-06T03:59:38.236Z,1013.07
2017-04-06T04:00:18.727Z,1013.09
2017-04-06T04:00:59.749Z,1013.08
2017-04-06T04:01:40.257Z,1013.07
2017-04-06T04:02:20.720Z,1013.09
2017-04-06T04:03:01.215Z,1013.08
2017-04-06T04:03:41.693Z,1013.08
2017-04-06T04:04:22.192Z,1013.1
2017-04-06T04:05:02.662Z,1013.09
2017-04-06T04:05:43.148Z,1013.11
2017-04-06T04:06:23.627Z,1013.15
2017-04-06T04:07:04.108Z,1013.14
2017-04-06T04:07:44.581Z,1013.2
2017-04-06T04:08:25.081Z,1013.2
2017-04-06T04:09:05.600Z,1013.21
2017-04-06T04:09:46.119Z,1013.21
2017-04-06T04:10:26.599Z,1013.17
2017-04-06T04:11:07.061Z,1013.21
2017-04-06T04:11:47.491Z,1013.21
2017-04-06T04:13:45.169Z,1013.24
2017-04-06T04:14:25.608Z,1013.23
2017-04-06T04:15:06.050Z,1013.21
2017-04-06T04:15:46.550Z,1013.25
2017-04-06T04:16:26.981Z,1013.28
2017-04-06T04:17:07.468Z,1013.33
2017-04-06T04:17:47.939Z,1013.31
2017-04-06T04:18:28.389Z,1013.34
2017-04-06T04:19:08.829Z,1013.34
2017-04-06T04:21:26.635Z,1013.37
2017-04-06T04:22:07.116Z,1013.4
2017-04-06T04:22:47.599Z,1013.4
2017-04-06T04:23:28.037Z,1013.45
2017-04-06T04:24:08.502Z,1013.42
2017-04-06T04:24:48.967Z,1013.5
2017-04-06T04:25:29.467Z,1013.49
2017-04-06T04:26:09.970Z,1013.47
2017-04-06T04:26:50.425Z,1013.5
2017-04-06T04:27:30.884Z,1013.52
2017-04-06T04:28:11.360Z,1013.49
2017-04-06T04:28:51.854Z,1013.5
2017-04-06T04:29:32.352Z,1013.45
2017-04-06T04:30:12.839Z,1013.42
2017-04-06T04:30:53.337Z,1013.4
2017-04-06T04:31:33.825Z,1013.42
2017-04-06T04:32:14.288Z,1013.41
2017-04-06T04:32:54.764Z,1013.37
2017-04-06T04:33:35.368Z,1013.41
2017-04-06T04:34:15.834Z,1013.45
2017-04-06T04:34:56.325Z,1013.42
2017-04-06T04:35:36.789Z,1013.46
2017-04-06T04:36:17.200Z,1013.52
2017-04-06T04:38:09.763Z,1013.52
2017-04-06T04:40:02.278Z,1013.57
2017-04-06T04:40:42.738Z,1013.56
2017-04-06T04:41:23.234Z,1013.59
2017-04-06T04:42:04.693Z,1013.55
2017-04-06T04:42:45.177Z,1013.6
2017-04-06T04:43:25.654Z,1013.57
2017-04-06T04:44:06.146Z,1013.59
2017-04-06T04:44:46.642Z,1013.61
2017-04-06T04:45:27.126Z,1013.6
2017-04-06T04:46:07.609Z,1013.62
2017-04-06T04:46:48.160Z,1013.58
2017-04-06T04:47:28.673Z,1013.59
2017-04-06T04:48:09.182Z,1013.61
2017-04-06T04:48:49.636Z,1013.59
2017-04-06T04:49:30.134Z,1013.63
2017-04-06T04:50:10.687Z,1013.63
2017-04-06T04:50:51.132Z,1013.63
2017-04-06T04:51:31.600Z,1013.63
2017-04-06T04:52:12.060Z,1013.64
2017-04-06T04:52:52.514Z,1013.63
2017-04-06T04:53:32.980Z,1013.62
2017-04-06T04:54:13.476Z,1013.6
2017-04-06T04:54:53.973Z,1013.63
2017-04-06T04:55:34.447Z,1013.61
2017-04-06T04:56:14.913Z,1013.66
2017-04-06T04:56:55.398Z,1013.66
2017-04-06T04:57:35.874Z,1013.64
2017-04-06T04:58:16.398Z,1013.66
2017-04-06T04:58:56.858Z,1013.65
2017-04-06T04:59:37.378Z,1013.68
2017-04-06T05:00:17.899Z,1013.68
2017-04-06T05:00:58.330Z,1013.69
2017-04-06T05:02:56.029Z,1013.76
2017-04-06T05:03:36.538Z,1013.77
2017-04-06T05:04:17.003Z,1013.77
2017-04-06T05:04:57.456Z,1013.81
2017-04-06T05:05:38.044Z,1013.82
2017-04-06T05:06:18.515Z,1013.75
2017-04-06T05:08:36.335Z,1013.79
2017-04-06T05:09:16.795Z,1013.79
2017-04-06T05:09:57.284Z,1013.77
2017-04-06T05:10:37.750Z,1013.81
2017-04-06T05:11:18.254Z,1013.82
2017-04-06T05:11:58.708Z,1013.8
2017-04-06T05:12:39.169Z,1013.87
2017-04-06T05:13:19.694Z,1013.87
2017-04-06T05:14:00.220Z,1013.82
2017-04-06T05:15:57.877Z,1013.8
2017-04-06T05:16:38.384Z,1013.79
2017-04-06T05:18:35.988Z,1013.83
2017-04-06T05:19:16.475Z,1013.86
2017-04-06T05:19:56.968Z,1013.91
2017-04-06T05:20:37.468Z,1013.92
2017-04-06T05:21:17.955Z,1013.94
2017-04-06T05:21:58.442Z,1013.98
2017-04-06T05:22:38.932Z,1013.91
2017-04-06T05:23:19.405Z,1013.92
2017-04-06T05:23:59.899Z,1013.94
2017-04-06T05:24:40.404Z,1013.95
2017-04-06T05:25:20.856Z,1013.96
2017-04-06T05:26:01.423Z,1013.96
2017-04-06T05:26:41.898Z,1014.02
2017-04-06T05:27:22.433Z,1014.01
2017-04-06T05:28:02.918Z,1014.02
2017-04-06T05:28:43.356Z,1014.04
2017-04-06T05:29:23.809Z,1014.07
2017-04-06T05:30:04.267Z,1014.06
2017-04-06T05:30:44.724Z,1014.02
2017-04-06T05:31:25.202Z,1014.06
2017-04-06T05:32:05.690Z,1014.07
2017-04-06T05:32:46.152Z,1014.05
2017-04-06T05:33:26.641Z,1014.11
2017-04-06T05:34:07.114Z,1014.09
2017-04-06T05:34:47.641Z,1014.07
2017-04-06T05:35:28.132Z,1014.09
2017-04-06T05:36:08.611Z,1014.05
2017-04-06T05:36:49.094Z,1014.02
2017-04-06T05:37:29.569Z,1014.03
2017-04-06T05:39:57.499Z,1014.09
2017-04-06T05:40:37.977Z,1014.11
2017-04-06T05:41:18.462Z,1014.12
2017-04-06T05:41:58.901Z,1014.08
2017-04-06T05:42:39.355Z,1014.14
2017-04-06T05:43:19.835Z,1014.12
2017-04-06T05:44:00.307Z,1014.1
2017-04-06T05:44:40.749Z,1014.1
2017-04-06T05:46:38.366Z,1014.17
2017-04-06T05:47:18.894Z,1014.16
2017-04-06T05:47:59.370Z,1014.18
2017-04-06T05:48:39.869Z,1014.19
2017-04-06T05:49:20.351Z,1014.23
2017-04-06T05:50:00.816Z,1014.21
2017-04-06T05:50:41.222Z,1014.24
2017-04-06T05:51:21.654Z,1014.24
2017-04-06T05:52:02.173Z,1014.19
2017-04-06T05:52:42.719Z,1014.2
2017-04-06T05:53:23.173Z,1014.22
2017-04-06T05:54:03.634Z,1014.23
2017-04-06T05:54:44.093Z,1014.27
2017-04-06T05:56:41.743Z,1014.24
2017-04-06T05:59:09.864Z,1014.31
2017-04-06T05:59:50.314Z,1014.33
2017-04-06T06:02:18.266Z,1014.38
2017-04-06T06:02:58.762Z,1014.4
2017-04-06T06:03:39.240Z,1014.43
2017-04-06T06:04:19.724Z,1014.4
2017-04-06T06:05:00.215Z,1014.45
2017-04-06T06:05:40.692Z,1014.47
2017-04-06T06:06:21.201Z,1014.46
2017-04-06T06:07:01.725Z,1014.49
2017-04-06T06:07:42.141Z,1014.45
2017-04-06T06:08:22.641Z,1014.5
2017-04-06T06:09:03.088Z,1014.56
2017-04-06T06:09:43.573Z,1014.57
2017-04-06T06:10:24.079Z,1014.57
2017-04-06T06:12:52.061Z,1014.58
2017-04-06T06:13:32.579Z,1014.6
2017-04-06T06:14:13.049Z,1014.61
2017-04-06T06:16:40.979Z,1014.69
2017-04-06T06:17:21.467Z,1014.66
2017-04-06T06:18:01.921Z,1014.71
2017-04-06T06:18:42.514Z,1014.71
2017-04-06T06:19:22.945Z,1014.74
2017-04-06T06:20:03.477Z,1014.72
2017-04-06T06:20:43.971Z,1014.74
2017-04-06T06:21:24.472Z,1014.73
2017-04-06T06:22:04.950Z,1014.72
2017-04-06T06:24:32.878Z,1014.71
2017-04-06T06:25:13.303Z,1014.71
2017-04-06T06:25:53.840Z,1014.68
2017-04-06T06:26:34.320Z,1014.71
2017-04-06T06:27:14.787Z,1014.74
2017-04-06T06:27:55.272Z,1014.73
2017-04-06T06:28:35.773Z,1014.71
2017-04-06T06:29:16.252Z,1014.72
2017-04-06T06:29:56.791Z,1014.74
2017-04-06T06:30:37.261Z,1014.7
2017-04-06T06:31:17.718Z,1014.7
2017-04-06T06:31:58.201Z,1014.71
2017-04-06T06:32:38.688Z,1014.71
2017-04-06T06:33:19.224Z,1014.71
2017-04-06T06:33:59.661Z,1014.74
2017-04-06T06:34:40.134Z,1014.74
2017-04-06T06:35:20.560Z,1014.72
2017-04-06T06:36:01.048Z,1014.7
2017-04-06T06:36:41.597Z,1014.72
2017-04-06T06:37:22.065Z,1014.75
2017-04-06T06:39:19.844Z,1014.79
2017-04-06T06:40:00.310Z,1014.83
2017-04-06T06:40:40.852Z,1014.8
2017-04-06T06:41:21.338Z,1014.78
2017-04-06T06:42:01.858Z,1014.77
2017-04-06T06:42:42.240Z,1014.78
2017-04-06T06:44:34.930Z,1014.79
2017-04-06T06:45:15.386Z,1014.73
2017-04-06T06:47:33.254Z,1014.76
2017-04-06T06:48:13.724Z,1014.72
2017-04-06T06:48:54.227Z,1014.74
2017-04-06T06:49:34.771Z,1014.74
2017-04-06T06:51:32.580Z,1014.79
2017-04-06T06:52:13.001Z,1014.82
2017-04-06T06:52:53.449Z,1014.81
2017-04-06T06:53:33.920Z,1014.83
2017-04-06T06:54:14.409Z,1014.87
2017-04-06T06:54:54.878Z,1014.83
2017-04-06T06:55:35.445Z,1014.83
2017-04-06T06:56:16.013Z,1014.82
2017-04-06T06:56:56.531Z,1014.85
2017-04-06T06:57:37.704Z,1014.86
2017-04-06T06:58:18.108Z,1014.81
2017-04-06T06:58:58.596Z,1014.83
2017-04-06T06:59:39.085Z,1014.85
2017-04-06T07:00:19.668Z,1014.85
2017-04-06T07:01:00.353Z,1014.8
2017-04-06T07:01:40.878Z,1014.82
2017-04-06T07:02:21.531Z,1014.85
2017-04-06T07:03:02.028Z,1014.87
2017-04-06T07:03:42.534Z,1014.87
2017-04-06T07:04:23.192Z,1014.89
2017-04-06T07:05:03.822Z,1014.84
2017-04-06T07:05:44.421Z,1014.8
2017-04-06T07:06:25.015Z,1014.83
2017-04-06T07:07:05.486Z,1014.84
2017-04-06T07:07:45.930Z,1014.83
2017-04-06T07:08:26.445Z,1014.76
2017-04-06T07:09:06.994Z,1014.81
2017-04-06T07:09:47.440Z,1014.77
2017-04-06T07:10:27.937Z,1014.71
2017-04-06T07:11:08.615Z,1014.72
2017-04-06T07:13:26.473Z,1014.75
2017-04-06T07:14:06.909Z,1014.74
2017-04-06T07:14:47.420Z,1014.76
2017-04-06T07:15:27.934Z,1014.77
2017-04-06T07:16:08.496Z,1014.81
2017-04-06T07:16:49.031Z,1014.82
2017-04-06T07:17:29.551Z,1014.78
2017-04-06T07:18:10.048Z,1014.82
2017-04-06T07:18:50.535Z,1014.83
2017-04-06T07:19:31.033Z,1014.83
2017-04-06T07:20:11.545Z,1014.88
2017-04-06T07:20:52.154Z,1014.91
2017-04-06T07:21:32.791Z,1014.95
2017-04-06T07:22:13.303Z,1015
2017-04-06T07:22:53.790Z,1015.07
2017-04-06T07:23:34.334Z,1015.13
2017-04-06T07:24:14.811Z,1014.97
2017-04-06T07:24:55.308Z,1015.07
2017-04-06T07:25:35.853Z,1015.13
2017-04-06T07:26:16.371Z,1015.18
2017-04-06T07:26:57.002Z,1015.22
2017-04-06T07:27:37.444Z,1015.29
2017-04-06T07:28:17.947Z,1015.3
2017-04-06T07:28:58.468Z,1015.34
2017-04-06T07:29:38.945Z,1015.35
2017-04-06T07:30:19.421Z,1015.4
2017-04-06T07:30:59.925Z,1015.36
2017-04-06T07:31:40.437Z,1015.41
2017-04-06T07:32:21.036Z,1015.38
2017-04-06T07:33:01.640Z,1015.44
2017-04-06T07:33:42.332Z,1015.45
2017-04-06T07:34:22.957Z,1015.48
2017-04-06T07:35:03.571Z,1015.54
2017-04-06T07:35:44.153Z,1015.61
2017-04-06T07:36:24.774Z,1015.68
2017-04-06T07:37:05.340Z,1015.56
2017-04-06T07:37:46.758Z,1015.82
2017-04-06T07:38:27.454Z,1015.18
2017-04-06T07:39:08.087Z,1015.52
2017-04-06T07:39:48.806Z,1015.76
2017-04-06T07:40:29.447Z,1015.32
2017-04-06T07:41:10.031Z,1015
2017-04-06T07:41:50.674Z,1015.41
2017-04-06T07:42:31.328Z,1015.43
2017-04-06T07:43:11.900Z,1015.54
2017-04-06T07:43:52.462Z,1015.46
2017-04-06T07:44:33.094Z,1015.67
2017-04-06T07:45:13.708Z,1015.76
2017-04-06T07:45:54.343Z,1015.94
2017-04-06T07:46:35.013Z,1015.37
2017-04-06T07:47:15.676Z,1015.3
2017-04-06T07:47:56.343Z,1015.52
2017-04-06T07:48:36.890Z,1016
2017-04-06T07:49:17.503Z,1016.19
2017-04-06T07:49:58.088Z,1016.29
2017-04-06T07:50:38.656Z,1016.34
2017-04-06T07:51:19.178Z,1016.31
2017-04-06T07:51:59.766Z,1016.35
2017-04-06T07:52:40.267Z,1016.31
2017-04-06T07:53:20.884Z,1016.29
2017-04-06T07:54:01.425Z,1016.24
2017-04-06T07:54:41.962Z,1016.12
2017-04-06T07:55:22.422Z,1015.48
2017-04-06T07:56:02.896Z,1015.49
2017-04-06T07:56:43.324Z,1015.79
2017-04-06T07:57:23.777Z,1015.72
2017-04-06T07:58:05.318Z,1015.47
2017-04-06T08:00:02.999Z,1015.22
2017-04-06T08:00:43.489Z,1015.18
2017-04-06T08:01:24.005Z,1015.19
2017-04-06T08:02:04.640Z,1015.22
2017-04-06T08:02:45.045Z,1015.24
2017-04-06T08:03:25.560Z,1015.17
2017-04-06T08:04:06.042Z,1015.15
2017-04-06T08:06:24.080Z,1015.13
2017-04-06T08:07:04.596Z,1015.07
2017-04-06T08:07:45.056Z,1015.09
2017-04-06T08:08:25.565Z,1015.06
2017-04-06T08:09:06.151Z,1015.08
2017-04-06T08:09:46.632Z,1015.11
2017-04-06T08:10:27.111Z,1015.11
2017-04-06T08:11:07.625Z,1015.14
2017-04-06T08:11:48.164Z,1015.21
2017-04-06T08:12:28.988Z,1015.29
2017-04-06T08:13:09.513Z,1015.33
2017-04-06T08:13:50.001Z,1015.36
2017-04-06T08:14:30.573Z,1015.39
2017-04-06T08:15:11.002Z,1015.41
2017-04-06T08:15:51.486Z,1015.62
2017-04-06T08:16:31.968Z,1015.38
2017-04-06T08:17:12.433Z,1015.27
2017-04-06T08:17:52.973Z,1015.17
2017-04-06T08:20:05.703Z,1015.24
2017-04-06T08:20:46.141Z,1015.4
2017-04-06T08:21:26.614Z,1015.44
2017-04-06T08:22:07.078Z,1015.36
2017-04-06T08:22:47.658Z,1015.31
2017-04-06T08:23:28.180Z,1015.23
2017-04-06T08:24:08.649Z,1015.21
2017-04-06T08:24:49.119Z,1015.15
2017-04-06T08:25:29.579Z,1015.14
2017-04-06T08:26:10.081Z,1015.18
2017-04-06T08:29:40.053Z,1015.17
2017-04-06T08:30:20.663Z,1015.16
2017-04-06T08:32:38.617Z,1015.16
2017-04-06T08:33:19.099Z,1015.17
2017-04-06T08:33:59.590Z,1015.2
2017-04-06T08:34:40.073Z,1015.19
2017-04-06T08:35:20.653Z,1015.2
2017-04-06T08:36:01.160Z,1015.15
2017-04-06T08:36:41.714Z,1015.2
2017-04-06T08:37:22.590Z,1015.16
2017-04-06T08:38:03.065Z,1015.15
2017-04-06T08:38:43.580Z,1015.17
2017-04-06T08:39:24.065Z,1015.16
2017-04-06T08:40:04.531Z,1015.23
2017-04-06T08:40:45.075Z,1015.27
2017-04-06T08:41:25.603Z,1015.3
2017-04-06T08:42:06.192Z,1015.29
2017-04-06T08:42:46.670Z,1015.32
2017-04-06T08:43:27.223Z,1015.29
2017-04-06T08:44:07.783Z,1015.3
2017-04-06T08:44:48.608Z,1015.3
2017-04-06T08:45:29.224Z,1015.3
2017-04-06T08:46:09.690Z,1015.27
2017-04-06T08:46:50.244Z,1015.27
2017-04-06T08:47:30.698Z,1015.29
2017-04-06T08:48:11.167Z,1015.26
2017-04-06T08:48:51.613Z,1015.25
2017-04-06T08:50:44.276Z,1015.28
2017-04-06T08:51:24.739Z,1015.33
2017-04-06T08:52:05.240Z,1015.32
2017-04-06T08:52:45.742Z,1015.34
2017-04-06T08:53:26.261Z,1015.31
2017-04-06T08:54:06.735Z,1015.36
2017-04-06T08:56:34.732Z,1015.42
2017-04-06T08:57:15.198Z,1015.43
2017-04-06T08:57:55.726Z,1015.44
2017-04-06T08:58:36.272Z,1015.45
2017-04-06T08:59:16.834Z,1015.42
2017-04-06T08:59:57.410Z,1015.44
2017-04-06T09:00:37.834Z,1015.47
2017-04-06T09:01:18.291Z,1015.49
2017-04-06T09:01:58.763Z,1015.52
2017-04-06T09:02:39.411Z,1015.52
2017-04-06T09:03:19.869Z,1015.55
2017-04-06T09:04:00.447Z,1015.54
2017-04-06T09:04:41.086Z,1015.54
2017-04-06T09:05:21.669Z,1015.54
2017-04-06T09:06:02.225Z,1015.52
2017-04-06T09:06:42.871Z,1015.5
2017-04-06T09:07:23.508Z,1015.51
2017-04-06T09:08:04.254Z,1015.57
2017-04-06T09:08:44.880Z,1015.63
2017-04-06T09:09:25.441Z,1015.63
2017-04-06T09:10:05.950Z,1015.65
2017-04-06T09:10:46.464Z,1015.65
2017-04-06T09:11:26.899Z,1015.64
2017-04-06T09:12:07.415Z,1015.63
2017-04-06T09:12:48.041Z,1015.67
2017-04-06T09:13:28.633Z,1015.65
2017-04-06T09:14:09.104Z,1015.63
2017-04-06T09:14:49.604Z,1015.64
2017-04-06T09:15:30.051Z,1015.61
2017-04-06T09:16:10.571Z,1015.65
2017-04-06T09:16:51.075Z,1015.59
2017-04-06T09:17:31.615Z,1015.6
2017-04-06T09:18:12.116Z,1015.63
2017-04-06T09:18:52.580Z,1015.66
2017-04-06T09:19:33.109Z,1015.68
2017-04-06T09:20:13.654Z,1015.68
2017-04-06T09:20:54.112Z,1015.67
2017-04-06T09:21:34.608Z,1015.7
2017-04-06T09:22:15.073Z,1015.7
2017-04-06T09:22:55.576Z,1015.78
2017-04-06T09:23:36.122Z,1015.74
2017-04-06T09:24:16.655Z,1015.78
2017-04-06T09:24:57.141Z,1015.86